Time;durP1;ratioP1;P1;durP2;ratioP2;P2;SDS_P1;SDS_P2;PMS_P1;PMS_P2;Temp;Humidity;BMP_temperature;BMP_pressure;BME280_temperature;BME280_humidity;BME280_pressure;Samples;Min_cycle;Max_cycle;Signal;HPM_P1;HPM_P2
2023/11/15 00:01:45;;;;;;;6.07;5.97;;;10.00;99.90;;;;;;4987983;28;21161;-70
2023/11/15 00:04:13;;;;;;;5.70;5.60;;;10.00;99.90;;;;;;5001124;28;20494;-70
2023/11/15 00:06:40;;;;;;;4.97;4.93;;;9.90;99.90;;;;;;5019150;28;20459;-71
2023/11/15 00:09:07;;;;;;;4.70;4.70;;;9.90;99.90;;;;;;5005876;28;20478;-69
2023/11/15 00:11:35;;;;;;;5.10;5.00;;;9.90;99.90;;;;;;4993567;28;20494;-70
2023/11/15 00:14:02;;;;;;;4.73;4.73;;;9.90;99.90;;;;;;5002577;28;20462;-71
2023/11/15 00:16:29;;;;;;;4.40;4.40;;;10.00;99.90;;;;;;4998986;28;20462;-71
2023/11/15 00:18:57;;;;;;;4.40;4.40;;;10.00;99.90;;;;;;5000040;28;20475;-70
2023/11/15 00:21:24;;;;;;;4.90;4.90;;;10.00;99.90;;;;;;5005416;28;20543;-70
2023/11/15 00:23:51;;;;;;;5.07;5.00;;;10.00;99.90;;;;;;4997048;28;20570;-69
2023/11/15 00:26:19;;;;;;;4.67;4.67;;;10.10;99.90;;;;;;5005049;28;20463;-71
2023/11/15 00:28:47;;;;;;;4.80;4.80;;;10.10;99.90;;;;;;5006160;28;20465;-71
2023/11/15 00:31:13;;;;;;;4.63;4.63;;;10.10;99.90;;;;;;5006351;28;20494;-69
2023/11/15 00:33:40;;;;;;;4.57;4.57;;;10.10;99.90;;;;;;5002005;28;20470;-71
2023/11/15 00:36:11;;;;;;;3.60;3.60;;;10.10;99.90;;;;;;4996382;28;20466;-70
2023/11/15 00:38:38;;;;;;;4.20;4.20;;;10.00;99.90;;;;;;5003120;28;20528;-71
2023/11/15 00:41:06;;;;;;;4.00;4.00;;;10.10;99.90;;;;;;5012051;28;20460;-71
2023/11/15 00:43:33;;;;;;;4.13;4.13;;;10.10;99.90;;;;;;4999179;28;20497;-69
2023/11/15 00:46:00;;;;;;;3.70;3.70;;;10.10;99.90;;;;;;5017132;28;20471;-71
2023/11/15 00:48:26;;;;;;;4.37;4.37;;;10.20;99.90;;;;;;5007746;28;20455;-71
2023/11/15 00:50:53;;;;;;;3.80;3.80;;;10.20;99.90;;;;;;4991108;28;20498;-70
2023/11/15 00:53:22;;;;;;;4.40;4.40;;;10.20;99.90;;;;;;4993936;28;20513;-70
2023/11/15 00:55:50;;;;;;;4.63;4.63;;;10.30;99.90;;;;;;4995247;28;20461;-69
2023/11/15 00:58:17;;;;;;;4.77;4.77;;;10.30;99.90;;;;;;5010923;28;20455;-71
2023/11/15 01:00:47;;;;;;;4.70;4.70;;;10.30;99.90;;;;;;4994947;28;20523;-69
2023/11/15 01:03:15;;;;;;;4.23;4.23;;;10.30;99.90;;;;;;5007562;28;21082;-70
2023/11/15 01:05:42;;;;;;;4.37;4.37;;;10.30;99.90;;;;;;4987734;28;21057;-70
2023/11/15 01:08:09;;;;;;;4.43;4.43;;;10.30;99.90;;;;;;5001977;28;20976;-71
2023/11/15 01:10:37;;;;;;;4.20;4.20;;;10.40;99.90;;;;;;4995764;28;20532;-69
2023/11/15 01:13:03;;;;;;;4.13;4.13;;;10.40;99.90;;;;;;5021136;28;20545;-71
2023/11/15 01:15:30;;;;;;;3.73;3.73;;;10.30;99.90;;;;;;4992686;28;20570;-70
2023/11/15 01:17:58;;;;;;;3.80;3.80;;;10.40;99.90;;;;;;5001182;28;20200;-70
2023/11/15 01:20:26;;;;;;;3.57;3.57;;;10.40;99.90;;;;;;4990615;28;20829;-69
2023/11/15 01:22:52;;;;;;;3.53;3.53;;;10.40;99.90;;;;;;5001627;28;20549;-71
2023/11/15 01:25:20;;;;;;;3.60;3.60;;;10.40;99.90;;;;;;4995827;28;20459;-72
2023/11/15 01:27:48;;;;;;;4.07;4.07;;;10.50;99.90;;;;;;4988551;28;20475;-71
2023/11/15 01:30:15;;;;;;;3.33;3.33;;;10.50;99.90;;;;;;5000197;28;20466;-69
2023/11/15 01:32:42;;;;;;;3.50;3.50;;;10.50;99.90;;;;;;5005836;28;20531;-72
2023/11/15 01:35:09;;;;;;;3.40;3.40;;;10.50;99.90;;;;;;4995986;28;20470;-70
2023/11/15 01:37:36;;;;;;;3.27;3.27;;;10.50;99.90;;;;;;4991542;28;20465;-71
2023/11/15 01:40:06;;;;;;;3.20;3.20;;;10.50;99.90;;;;;;5001461;28;20458;-70
2023/11/15 01:42:34;;;;;;;2.73;2.73;;;10.50;99.90;;;;;;4992726;28;20466;-70
2023/11/15 01:45:03;;;;;;;3.20;3.20;;;10.50;99.90;;;;;;5015659;28;20481;-71
2023/11/15 01:47:30;;;;;;;3.67;3.67;;;10.50;99.90;;;;;;4995444;28;20466;-71
2023/11/15 01:49:57;;;;;;;3.70;3.70;;;10.50;99.90;;;;;;5002710;28;20802;-71
2023/11/15 01:52:25;;;;;;;4.17;4.17;;;10.50;99.90;;;;;;4995924;28;20581;-70
2023/11/15 01:54:55;;;;;;;4.00;4.00;;;10.50;99.90;;;;;;5006018;28;20560;-72
2023/11/15 01:57:22;;;;;;;3.47;3.47;;;10.50;99.90;;;;;;4996996;28;20490;-71
2023/11/15 01:59:49;;;;;;;3.50;3.50;;;10.40;99.90;;;;;;5000557;28;20473;-69
2023/11/15 02:02:18;;;;;;;3.57;3.57;;;10.40;99.90;;;;;;4994331;28;20467;-71
2023/11/15 02:04:45;;;;;;;3.30;3.30;;;10.40;99.90;;;;;;5010174;28;21012;-69
2023/11/15 02:07:12;;;;;;;3.17;3.17;;;10.40;99.90;;;;;;5003810;28;20469;-70
2023/11/15 02:09:40;;;;;;;3.30;3.30;;;10.50;99.90;;;;;;4995142;28;20477;-71
2023/11/15 02:12:07;;;;;;;3.43;3.43;;;10.50;99.90;;;;;;5004970;28;20493;-70
2023/11/15 02:14:35;;;;;;;3.77;3.77;;;10.50;99.90;;;;;;5016019;28;20470;-70
2023/11/15 02:17:02;;;;;;;3.60;3.60;;;10.50;99.90;;;;;;5001733;28;20728;-70
2023/11/15 02:19:30;;;;;;;3.43;3.43;;;10.50;99.90;;;;;;4994159;28;20477;-70
2023/11/15 02:21:57;;;;;;;3.73;3.73;;;10.50;99.90;;;;;;4986807;28;20459;-71
2023/11/15 02:24:26;;;;;;;3.50;3.50;;;10.50;99.90;;;;;;5004648;28;20455;-70
2023/11/15 02:26:53;;;;;;;3.63;3.63;;;10.50;99.90;;;;;;5005138;28;20461;-70
2023/11/15 02:29:20;;;;;;;2.80;2.80;;;10.50;99.90;;;;;;4992113;28;20463;-72
2023/11/15 02:31:47;;;;;;;3.27;3.27;;;10.50;99.90;;;;;;4993828;28;20491;-69
2023/11/15 02:34:14;;;;;;;3.27;3.27;;;10.50;99.90;;;;;;4990470;28;20557;-71
2023/11/15 02:36:42;;;;;;;3.33;3.33;;;10.50;99.90;;;;;;4998473;28;20467;-71
2023/11/15 02:39:10;;;;;;;3.23;3.23;;;10.60;99.90;;;;;;5005107;28;20458;-71
2023/11/15 02:41:39;;;;;;;3.47;3.47;;;10.60;99.90;;;;;;4996187;28;20521;-69
2023/11/15 02:44:09;;;;;;;2.50;2.50;;;10.50;99.90;;;;;;4990193;28;20867;-72
2023/11/15 02:46:38;;;;;;;3.20;3.20;;;10.50;99.90;;;;;;5014113;28;20462;-69
2023/11/15 02:49:05;;;;;;;3.37;3.37;;;10.50;99.90;;;;;;5003699;28;21105;-70
2023/11/15 02:51:32;;;;;;;3.23;3.23;;;10.60;99.90;;;;;;4995022;28;20499;-72
2023/11/15 02:54:00;;;;;;;2.60;2.60;;;10.60;99.90;;;;;;4999696;28;20480;-71
2023/11/15 02:56:26;;;;;;;2.80;2.80;;;10.60;99.90;;;;;;4999371;28;20477;-71
2023/11/15 02:58:55;;;;;;;3.37;3.37;;;10.60;99.90;;;;;;5001228;28;20465;-71
2023/11/15 03:01:22;;;;;;;3.70;3.70;;;10.60;99.90;;;;;;4997161;28;20482;-71
2023/11/15 03:03:50;;;;;;;3.47;3.47;;;10.60;99.90;;;;;;4997121;28;20462;-69
2023/11/15 03:06:18;;;;;;;3.70;3.70;;;10.60;99.90;;;;;;5004677;28;20976;-71
2023/11/15 03:08:45;;;;;;;3.20;3.20;;;10.60;99.90;;;;;;5002026;28;20462;-72
2023/11/15 03:11:13;;;;;;;3.10;3.10;;;10.60;99.90;;;;;;4989078;28;20502;-71
2023/11/15 03:13:40;;;;;;;3.40;3.40;;;10.60;99.90;;;;;;5045037;28;20457;-72
2023/11/15 03:16:08;;;;;;;3.63;3.63;;;10.60;99.90;;;;;;5001855;28;20477;-69
2023/11/15 03:18:35;;;;;;;3.70;3.70;;;10.60;99.90;;;;;;4991950;28;20479;-70
2023/11/15 03:21:02;;;;;;;3.60;3.60;;;10.60;99.90;;;;;;5000598;28;20480;-70
2023/11/15 03:23:29;;;;;;;3.77;3.77;;;10.60;99.90;;;;;;4990511;28;20474;-70
2023/11/15 03:25:56;;;;;;;3.60;3.60;;;10.60;99.90;;;;;;5004257;28;20462;-70
2023/11/15 03:28:23;;;;;;;3.93;3.93;;;10.60;99.90;;;;;;4991491;28;20468;-71
2023/11/15 03:30:49;;;;;;;3.80;3.80;;;10.50;99.90;;;;;;4994305;28;20473;-70
2023/11/15 03:33:18;;;;;;;3.90;3.90;;;10.50;99.90;;;;;;5003620;28;20476;-70
2023/11/15 03:35:44;;;;;;;4.40;4.40;;;10.50;99.90;;;;;;4994214;28;20479;-70
2023/11/15 03:38:12;;;;;;;4.40;4.40;;;10.50;99.90;;;;;;4999079;28;20454;-70
2023/11/15 03:40:39;;;;;;;4.23;4.23;;;10.50;99.90;;;;;;4995104;28;20467;-70
2023/11/15 03:43:06;;;;;;;4.60;4.60;;;10.60;99.90;;;;;;5002812;28;20985;-70
2023/11/15 03:45:31;;;;;;;4.70;4.70;;;10.50;99.90;;;;;;5023110;28;20455;-72
2023/11/15 03:47:58;;;;;;;4.57;4.57;;;10.50;99.90;;;;;;5007513;28;20472;-70
2023/11/15 03:50:27;;;;;;;4.53;4.53;;;10.50;99.90;;;;;;5044374;28;20508;-71
2023/11/15 03:52:54;;;;;;;4.73;4.73;;;10.50;99.90;;;;;;5006256;28;20518;-70
2023/11/15 03:55:21;;;;;;;4.47;4.47;;;10.60;99.90;;;;;;4998621;28;20573;-69
2023/11/15 03:57:48;;;;;;;4.50;4.50;;;10.60;99.90;;;;;;5004812;28;21012;-70
2023/11/15 04:00:17;;;;;;;4.80;4.80;;;10.60;99.90;;;;;;4998300;28;20462;-70
2023/11/15 04:02:45;;;;;;;4.80;4.80;;;10.60;99.90;;;;;;5002500;28;20842;-71
2023/11/15 04:05:12;;;;;;;4.20;4.20;;;10.50;99.90;;;;;;4990938;28;20462;-69
2023/11/15 04:07:41;;;;;;;4.70;4.70;;;10.50;99.90;;;;;;5005585;28;20557;-72
2023/11/15 04:10:10;;;;;;;4.23;4.23;;;10.50;99.90;;;;;;5005538;28;21037;-72
2023/11/15 04:12:37;;;;;;;4.30;4.30;;;10.50;99.90;;;;;;5021436;28;20848;-68
2023/11/15 04:15:08;;;;;;;4.30;4.30;;;10.40;99.90;;;;;;5010989;28;20473;-70
2023/11/15 04:17:36;;;;;;;3.73;3.73;;;10.50;99.90;;;;;;5005589;28;20469;-72
2023/11/15 04:20:03;;;;;;;4.00;4.00;;;10.50;99.90;;;;;;5002044;28;20466;-69
2023/11/15 04:22:30;;;;;;;3.97;3.97;;;10.50;99.90;;;;;;4992201;28;20467;-69
2023/11/15 04:24:58;;;;;;;4.40;4.40;;;10.50;99.90;;;;;;5003155;28;20461;-71
2023/11/15 04:27:28;;;;;;;3.93;3.93;;;10.50;99.90;;;;;;5006426;28;20466;-72
2023/11/15 04:29:57;;;;;;;4.20;4.20;;;10.50;99.90;;;;;;5002290;28;20466;-70
2023/11/15 04:32:25;;;;;;;3.97;3.97;;;10.50;99.90;;;;;;4996032;28;20552;-72
2023/11/15 04:34:53;;;;;;;4.40;4.40;;;10.50;99.90;;;;;;4996157;28;20466;-71
2023/11/15 04:37:20;;;;;;;4.33;4.33;;;10.50;99.90;;;;;;4993682;28;20498;-70
2023/11/15 04:39:48;;;;;;;4.60;4.60;;;10.50;99.90;;;;;;5003474;28;20470;-70
2023/11/15 04:42:18;;;;;;;4.37;4.37;;;10.50;99.90;;;;;;5003385;28;20512;-71
2023/11/15 04:44:46;;;;;;;4.70;4.70;;;10.50;99.90;;;;;;5007123;28;20561;-72
2023/11/15 04:47:14;;;;;;;4.40;4.40;;;10.50;99.90;;;;;;5009057;28;20539;-70
2023/11/15 04:49:42;;;;;;;4.40;4.40;;;10.50;99.90;;;;;;5003681;28;20868;-70
2023/11/15 04:52:09;;;;;;;4.20;4.20;;;10.60;99.90;;;;;;4997825;28;21042;-69
2023/11/15 04:54:36;;;;;;;4.50;4.50;;;10.60;99.90;;;;;;4997845;28;20554;-71
2023/11/15 04:57:04;;;;;;;4.53;4.53;;;10.60;99.90;;;;;;4997513;28;20845;-69
2023/11/15 04:59:33;;;;;;;4.67;4.67;;;10.60;99.90;;;;;;5006257;28;20838;-70
2023/11/15 05:02:00;;;;;;;5.27;5.17;;;10.60;99.90;;;;;;5004342;28;20465;-72
2023/11/15 05:04:27;;;;;;;5.10;5.00;;;10.60;99.90;;;;;;5005036;28;20504;-69
2023/11/15 05:06:54;;;;;;;5.10;5.00;;;10.50;99.90;;;;;;4998961;28;20467;-70
2023/11/15 05:09:21;;;;;;;4.83;4.83;;;10.50;99.90;;;;;;4998987;28;20470;-69
2023/11/15 05:11:48;;;;;;;4.87;4.87;;;10.40;99.90;;;;;;5016697;28;20560;-70
2023/11/15 05:14:15;;;;;;;4.60;4.60;;;10.50;99.90;;;;;;5023107;28;20470;-70
2023/11/15 05:16:43;;;;;;;4.47;4.47;;;10.40;99.90;;;;;;5006361;28;20803;-72
2023/11/15 05:19:10;;;;;;;4.80;4.80;;;10.50;99.90;;;;;;5006708;28;20454;-69
2023/11/15 05:21:37;;;;;;;4.87;4.87;;;10.40;99.90;;;;;;5006336;28;20462;-70
2023/11/15 05:24:05;;;;;;;4.80;4.80;;;10.30;99.90;;;;;;5000761;28;20462;-69
2023/11/15 05:26:32;;;;;;;4.67;4.67;;;10.30;99.90;;;;;;5000883;28;20990;-70
2023/11/15 05:28:59;;;;;;;4.70;4.70;;;10.30;99.90;;;;;;5001952;28;20466;-70
2023/11/15 05:31:26;;;;;;;4.90;4.90;;;10.30;99.90;;;;;;5005948;28;20531;-70
2023/11/15 05:33:54;;;;;;;4.70;4.70;;;10.40;99.90;;;;;;4992896;28;20554;-69
2023/11/15 05:36:22;;;;;;;5.40;5.30;;;10.40;99.90;;;;;;5002041;28;20462;-70
2023/11/15 05:38:48;;;;;;;4.73;4.73;;;10.50;99.90;;;;;;5002171;28;20466;-69
2023/11/15 05:41:16;;;;;;;5.17;5.07;;;10.50;99.90;;;;;;4994067;28;20464;-72
2023/11/15 05:43:42;;;;;;;5.53;5.43;;;10.40;99.90;;;;;;5002717;28;20977;-70
2023/11/15 05:46:09;;;;;;;5.60;5.50;;;10.30;99.90;;;;;;5007790;28;21088;-70
2023/11/15 05:48:36;;;;;;;5.40;5.30;;;10.20;99.90;;;;;;5003584;28;20466;-69
2023/11/15 05:51:06;;;;;;;4.83;4.83;;;10.20;99.90;;;;;;5004676;28;20454;-70
2023/11/15 05:53:33;;;;;;;4.03;4.03;;;10.20;99.90;;;;;;4999602;28;20891;-71
2023/11/15 05:55:59;;;;;;;4.40;4.40;;;10.20;99.90;;;;;;4997507;28;20775;-69
2023/11/15 05:58:27;;;;;;;4.03;4.03;;;10.20;99.90;;;;;;4995307;28;20470;-69
2023/11/15 06:00:54;;;;;;;4.37;4.37;;;10.20;99.90;;;;;;5003380;28;20454;-71
2023/11/15 06:03:20;;;;;;;4.67;4.67;;;10.30;99.90;;;;;;5000273;28;20473;-70
2023/11/15 06:05:48;;;;;;;4.47;4.47;;;10.30;99.90;;;;;;5001863;28;20468;-71
2023/11/15 06:08:16;;;;;;;4.13;4.13;;;10.40;99.90;;;;;;5004735;28;20455;-69
2023/11/15 06:10:44;;;;;;;4.20;4.20;;;10.30;99.90;;;;;;4998316;28;20475;-72
2023/11/15 06:13:15;;;;;;;3.20;3.20;;;10.40;99.90;;;;;;4995106;28;20555;-70
2023/11/15 06:15:42;;;;;;;3.60;3.60;;;10.40;99.90;;;;;;4998284;28;20463;-71
2023/11/15 06:18:10;;;;;;;4.03;4.03;;;10.40;99.90;;;;;;4996501;28;20533;-69
2023/11/15 06:20:38;;;;;;;3.83;3.83;;;10.40;99.90;;;;;;5005499;28;20473;-72
2023/11/15 06:23:05;;;;;;;4.03;4.03;;;10.40;99.90;;;;;;4992269;28;20469;-69
2023/11/15 06:25:34;;;;;;;4.70;4.70;;;10.40;99.90;;;;;;4995952;28;20455;-69
2023/11/15 06:28:03;;;;;;;4.60;4.60;;;10.40;99.90;;;;;;5005174;28;20462;-70
2023/11/15 06:30:30;;;;;;;5.20;5.10;;;10.40;99.90;;;;;;4992261;28;20606;-70
2023/11/15 06:32:57;;;;;;;6.40;6.30;;;10.40;99.90;;;;;;4999980;28;20572;-70
2023/11/15 06:35:23;;;;;;;6.87;6.77;;;10.40;99.90;;;;;;4997652;28;21022;-70
2023/11/15 06:37:51;;;;;;;6.57;6.47;;;10.40;99.90;;;;;;5000104;28;20515;-70
2023/11/15 06:40:18;;;;;;;6.90;6.80;;;10.40;99.90;;;;;;5005375;28;20496;-71
2023/11/15 06:42:46;;;;;;;6.83;6.73;;;10.40;99.90;;;;;;4998028;28;20470;-70
2023/11/15 06:45:13;;;;;;;6.00;5.90;;;10.40;99.90;;;;;;4996639;28;20566;-69
2023/11/15 06:47:42;;;;;;;6.20;6.10;;;10.30;99.90;;;;;;4995968;28;20958;-69
2023/11/15 06:50:10;;;;;;;5.90;5.80;;;10.30;99.90;;;;;;5003490;28;20504;-70
2023/11/15 06:52:38;;;;;;;5.73;5.63;;;10.30;99.90;;;;;;5004981;28;20498;-69
2023/11/15 06:55:09;;;;;;;5.97;5.87;;;10.20;99.90;;;;;;5002454;28;20450;-70
2023/11/15 06:57:37;;;;;;;6.27;6.17;;;10.20;99.90;;;;;;5002160;28;20469;-70
2023/11/15 07:00:08;;;;;;;6.70;6.60;;;10.20;99.90;;;;;;4994520;28;20458;-69
2023/11/15 07:02:35;;;;;;;5.87;5.77;;;10.20;99.90;;;;;;5005042;28;20943;-70
2023/11/15 07:05:03;;;;;;;5.67;5.57;;;10.30;99.90;;;;;;5002143;28;20454;-72
2023/11/15 07:07:30;;;;;;;5.33;5.23;;;10.30;99.90;;;;;;4997192;28;20478;-70
2023/11/15 07:09:58;;;;;;;5.70;5.60;;;10.30;99.90;;;;;;4993979;28;20470;-71
2023/11/15 07:12:25;;;;;;;5.80;5.70;;;10.30;99.90;;;;;;4989014;28;20494;-69
2023/11/15 07:14:52;;;;;;;5.53;5.43;;;10.40;99.90;;;;;;4998668;28;20949;-70
2023/11/15 07:17:21;;;;;;;5.50;5.40;;;10.30;99.90;;;;;;4991197;28;20495;-71
2023/11/15 07:19:48;;;;;;;5.40;5.30;;;10.40;99.90;;;;;;5003920;28;20465;-69
2023/11/15 07:22:15;;;;;;;4.80;4.80;;;10.40;99.90;;;;;;4997873;28;20506;-71
2023/11/15 07:24:43;;;;;;;5.33;5.23;;;10.30;99.90;;;;;;4990992;28;20470;-70
2023/11/15 07:27:09;;;;;;;4.93;4.93;;;10.20;99.90;;;;;;4992544;28;20634;-72
2023/11/15 07:29:37;;;;;;;4.83;4.83;;;10.30;99.90;;;;;;4994647;28;20476;-70
2023/11/15 07:32:07;;;;;;;4.30;4.30;;;10.30;99.90;;;;;;4992258;28;20474;-70
2023/11/15 07:34:35;;;;;;;4.60;4.60;;;10.30;99.90;;;;;;4995212;28;20466;-69
2023/11/15 07:37:02;;;;;;;3.80;3.80;;;10.40;99.90;;;;;;4996972;28;20470;-70
2023/11/15 07:39:29;;;;;;;4.10;4.10;;;10.40;99.90;;;;;;4994155;28;20544;-72
2023/11/15 07:41:56;;;;;;;4.00;4.00;;;10.40;99.90;;;;;;4995311;28;20473;-72
2023/11/15 07:44:25;;;;;;;4.70;4.70;;;10.50;99.90;;;;;;4994828;28;20487;-71
2023/11/15 07:46:54;;;;;;;4.00;4.00;;;10.60;99.90;;;;;;5000900;28;20465;-70
2023/11/15 07:49:23;;;;;;;4.40;4.40;;;10.60;99.90;;;;;;4991741;28;20968;-70
2023/11/15 07:51:52;;;;;;;4.37;4.37;;;10.60;99.90;;;;;;4997267;28;20544;-71
2023/11/15 07:54:19;;;;;;;4.87;4.87;;;10.60;99.90;;;;;;4998939;28;20505;-71
2023/11/15 07:56:46;;;;;;;5.60;5.50;;;10.70;99.90;;;;;;4994084;28;20557;-69
2023/11/15 07:59:13;;;;;;;5.13;5.03;;;10.70;99.90;;;;;;4994642;28;20466;-70
2023/11/15 08:01:42;;;;;;;5.80;5.70;;;10.70;99.90;;;;;;4994038;28;20467;-69
2023/11/15 08:04:09;;;;;;;5.40;5.30;;;10.70;99.90;;;;;;4995379;28;20463;-70
2023/11/15 08:06:36;;;;;;;6.57;6.47;;;10.80;99.90;;;;;;4991431;28;20467;-69
2023/11/15 08:09:07;;;;;;;6.47;6.37;;;10.80;99.90;;;;;;4997157;28;20564;-71
2023/11/15 08:11:35;;;;;;;6.47;6.37;;;10.90;99.90;;;;;;4993927;28;20477;-70
2023/11/15 08:14:06;;;;;;;7.50;7.40;;;10.90;99.90;;;;;;5001094;28;20491;-70
2023/11/15 08:16:33;;;;;;;7.53;7.43;;;11.00;99.90;;;;;;4995763;28;20490;-71
2023/11/15 08:19:00;;;;;;;7.50;7.40;;;11.10;99.90;;;;;;4995432;28;20889;-70
2023/11/15 08:21:27;;;;;;;7.10;7.00;;;11.10;99.90;;;;;;4997163;28;20459;-71
2023/11/15 08:23:54;;;;;;;7.43;7.33;;;11.20;99.90;;;;;;4992719;28;20562;-70
2023/11/15 08:26:22;;;;;;;7.60;7.50;;;11.10;99.90;;;;;;4991414;28;20550;-72
2023/11/15 08:28:48;;;;;;;7.40;7.30;;;11.10;99.90;;;;;;4997128;28;21005;-69
2023/11/15 08:31:15;;;;;;;7.53;7.43;;;11.10;99.90;;;;;;5000144;28;20468;-71
2023/11/15 08:33:44;;;;;;;7.43;7.33;;;11.20;99.90;;;;;;4995948;28;20483;-72
2023/11/15 08:36:12;;;;;;;7.30;7.20;;;11.30;99.90;;;;;;4991666;28;20542;-71
2023/11/15 08:38:39;;;;;;;7.40;7.30;;;11.30;99.90;;;;;;4995699;28;20466;-69
2023/11/15 08:41:06;;;;;;;7.57;7.47;;;11.40;99.90;;;;;;4999319;28;20474;-71
2023/11/15 08:43:34;;;;;;;7.70;7.60;;;11.30;99.90;;;;;;4995191;28;20487;-70
2023/11/15 08:46:02;;;;;;;8.17;8.07;;;11.40;99.90;;;;;;4997092;28;20463;-71
2023/11/15 08:48:29;;;;;;;8.30;8.20;;;11.40;99.90;;;;;;4995903;28;21091;-70
2023/11/15 08:50:58;;;;;;;7.70;7.60;;;11.40;99.90;;;;;;4991312;28;20462;-71
2023/11/15 08:53:25;;;;;;;7.87;7.77;;;11.40;99.90;;;;;;4993358;28;20499;-73
2023/11/15 08:55:52;;;;;;;8.37;8.27;;;11.40;99.90;;;;;;4991583;28;20466;-73
2023/11/15 08:58:20;;;;;;;8.17;8.07;;;11.40;99.90;;;;;;4994456;28;20475;-71
2023/11/15 09:00:51;;;;;;;8.40;8.30;;;11.30;99.90;;;;;;4994633;28;20590;-69
2023/11/15 09:03:18;;;;;;;8.43;8.33;;;11.30;99.90;;;;;;4996468;28;20463;-70
2023/11/15 09:05:46;;;;;;;8.30;8.20;;;11.30;99.90;;;;;;4993009;28;20467;-70
2023/11/15 09:08:13;;;;;;;7.67;7.57;;;11.40;99.90;;;;;;4995872;28;20505;-73
2023/11/15 09:10:40;;;;;;;9.20;9.00;;;11.40;99.90;;;;;;4989732;28;20472;-73
2023/11/15 09:13:08;;;;;;;9.13;8.93;;;11.30;99.90;;;;;;4999010;28;20482;-73
2023/11/15 09:15:35;;;;;;;9.30;9.10;;;11.40;99.90;;;;;;4998396;28;20471;-72
2023/11/15 09:18:06;;;;;;;8.80;8.60;;;11.60;99.90;;;;;;4994481;28;20459;-70
2023/11/15 09:20:34;;;;;;;9.40;9.20;;;11.70;99.90;;;;;;4991996;28;20487;-73
2023/11/15 09:23:02;;;;;;;9.73;9.53;;;11.70;99.90;;;;;;4997424;28;20470;-72
2023/11/15 09:25:30;;;;;;;9.50;9.30;;;11.80;99.90;;;;;;4993839;28;20468;-73
2023/11/15 09:28:02;;;;;;;9.60;9.40;;;11.70;99.90;;;;;;4989202;28;20454;-70
2023/11/15 09:30:31;;;;;;;10.20;10.00;;;11.70;99.90;;;;;;4996832;28;21020;-70
2023/11/15 09:32:59;;;;;;;10.00;9.80;;;11.80;99.90;;;;;;4994589;28;20983;-72
2023/11/15 09:35:29;;;;;;;10.50;10.30;;;11.70;99.90;;;;;;4993702;28;20474;-73
2023/11/15 09:37:57;;;;;;;10.33;10.13;;;11.70;99.90;;;;;;4997017;28;20462;-73
2023/11/15 09:40:25;;;;;;;9.80;9.60;;;11.70;99.90;;;;;;4996246;28;20501;-71
2023/11/15 09:42:53;;;;;;;10.60;10.30;;;11.70;99.90;;;;;;4995016;28;20502;-70
2023/11/15 09:45:23;;;;;;;10.67;10.40;;;11.80;99.90;;;;;;4995582;28;20471;-72
2023/11/15 09:47:52;;;;;;;10.20;10.00;;;11.90;99.90;;;;;;4997242;28;20879;-71
2023/11/15 09:50:22;;;;;;;9.80;9.60;;;12.00;99.90;;;;;;4992768;28;20471;-72
2023/11/15 09:52:53;;;;;;;10.80;10.50;;;12.10;99.90;;;;;;4993723;28;20499;-73
2023/11/15 09:55:21;;;;;;;10.30;10.10;;;12.20;99.90;;;;;;4987873;28;20584;-70
2023/11/15 09:57:49;;;;;;;10.87;10.57;;;12.20;99.90;;;;;;4994740;28;20955;-72
2023/11/15 10:00:19;;;;;;;11.20;10.90;;;12.30;99.90;;;;;;4993826;28;20935;-72
2023/11/15 10:02:46;;;;;;;11.40;11.10;;;12.40;99.90;;;;;;4989952;28;20924;-71
2023/11/15 10:05:20;;;;;;;11.90;11.60;;;12.60;99.90;;;;;;4987338;28;20466;-69
2023/11/15 10:07:48;;;;;;;11.60;11.30;;;12.70;99.90;;;;;;4995200;28;20834;-69
2023/11/15 10:10:20;;;;;;;11.80;11.50;;;12.70;99.90;;;;;;4993476;28;20523;-72
2023/11/15 10:12:50;;;;;;;12.37;11.97;;;12.50;99.90;;;;;;4999536;28;21075;-72
2023/11/15 10:15:19;;;;;;;12.20;11.80;;;12.50;99.90;;;;;;4989804;28;20459;-69
2023/11/15 10:17:48;;;;;;;12.17;11.77;;;12.40;99.90;;;;;;4993053;28;20464;-68
2023/11/15 10:20:20;;;;;;;11.40;11.10;;;12.50;99.90;;;;;;4989061;28;21064;-68
2023/11/15 10:22:48;;;;;;;11.53;11.23;;;12.60;99.90;;;;;;4999190;28;20558;-70
2023/11/15 10:25:15;;;;;;;12.00;11.70;;;12.70;99.90;;;;;;4995238;28;20477;-71
2023/11/15 10:27:44;;;;;;;12.27;11.87;;;12.60;99.90;;;;;;4992183;28;20920;-71
2023/11/15 10:30:15;;;;;;;11.70;11.40;;;12.40;99.90;;;;;;4992509;28;20571;-70
2023/11/15 10:32:44;;;;;;;11.90;11.60;;;12.40;99.90;;;;;;4990412;28;20458;-69
2023/11/15 10:35:11;;;;;;;11.60;11.30;;;12.20;99.90;;;;;;4993133;28;20835;-70
2023/11/15 10:37:48;;;;;;;10.77;10.47;;;12.20;99.90;;;;;;4994263;28;20466;-69
2023/11/15 10:40:16;;;;;;;10.80;10.50;;;12.20;99.90;;;;;;4992340;28;20492;-71
2023/11/15 10:42:48;;;;;;;10.87;10.57;;;12.20;99.90;;;;;;4993488;28;20462;-69
2023/11/15 10:45:16;;;;;;;10.30;10.10;;;12.40;99.90;;;;;;4988213;28;20515;-72
2023/11/15 10:47:54;;;;;;;11.13;10.83;;;12.40;99.90;;;;;;4987663;28;20501;-70
2023/11/15 10:50:23;;;;;;;11.00;10.70;;;12.40;99.90;;;;;;4992499;28;21017;-69
2023/11/15 10:52:50;;;;;;;11.60;11.30;;;12.50;99.90;;;;;;4991808;28;20486;-70
2023/11/15 10:55:18;;;;;;;11.77;11.47;;;12.50;99.90;;;;;;4987412;28;20611;-69
2023/11/15 10:57:48;;;;;;;12.27;11.90;;;12.50;99.90;;;;;;4992906;28;20579;-68
2023/11/15 11:00:21;;;;;;;11.77;11.47;;;12.40;99.90;;;;;;4992801;28;21000;-72
2023/11/15 11:02:51;;;;;;;11.33;11.03;;;12.80;99.90;;;;;;4990028;28;20492;-69
2023/11/15 11:05:28;;;;;;;11.80;11.50;;;13.40;99.90;;;;;;4993155;28;20465;-69
2023/11/15 11:08:05;;;;;;;11.63;11.33;;;13.90;99.90;;;;;;4990721;28;20467;-69
2023/11/15 11:10:38;;;;;;;12.40;12.00;;;13.80;99.90;;;;;;4991428;28;20957;-70
2023/11/15 11:13:18;;;;;;;12.40;12.00;;;13.40;99.90;;;;;;4995383;28;21382;-70
2023/11/15 11:15:47;;;;;;;12.50;12.10;;;13.20;99.90;;;;;;4993209;28;20506;-69
2023/11/15 11:18:15;;;;;;;12.53;12.13;;;13.20;99.90;;;;;;4993724;28;20892;-69
2023/11/15 11:20:54;;;;;;;12.10;11.80;;;13.40;99.90;;;;;;4991348;28;20491;-69
2023/11/15 11:23:22;;;;;;;12.67;12.27;;;13.70;99.90;;;;;;4989284;28;20467;-70
2023/11/15 11:25:51;;;;;;;12.60;12.20;;;13.90;99.90;;;;;;4985819;28;20475;-69
2023/11/15 11:28:20;;;;;;;13.13;12.73;;;14.30;99.90;;;;;;4992344;28;20461;-69
2023/11/15 11:31:18;;;;;;;13.00;12.60;;;14.70;99.90;;;;;;4987184;28;20468;-72
2023/11/15 11:34:09;;;;;;;13.17;12.77;;;15.20;99.90;;;;;;4993746;28;20523;-69
2023/11/15 11:36:49;;;;;;;12.80;12.40;;;15.00;99.90;;;;;;4991022;28;20881;-69
2023/11/15 11:39:22;;;;;;;13.33;12.93;;;14.90;99.90;;;;;;4991421;28;20465;-69
2023/11/15 11:41:49;;;;;;;12.57;12.17;;;15.00;99.90;;;;;;4991072;28;20661;-72
2023/11/15 11:44:19;;;;;;;12.60;12.20;;;15.20;99.90;;;;;;4993637;28;20584;-69
2023/11/15 11:47:01;;;;;;;13.70;13.30;;;15.30;99.90;;;;;;4989223;28;20894;-69
2023/11/15 11:49:28;;;;;;;13.63;13.23;;;15.10;99.90;;;;;;4994947;28;20473;-70
2023/11/15 11:51:56;;;;;;;13.13;12.73;;;15.00;99.90;;;;;;4990640;28;20470;-72
2023/11/15 11:54:24;;;;;;;13.63;13.23;;;15.40;99.90;;;;;;4994062;28;20505;-72
2023/11/15 11:56:53;;;;;;;14.50;14.00;;;15.60;99.90;;;;;;4989668;28;20821;-69
2023/11/15 11:59:28;;;;;;;14.13;13.63;;;15.50;99.90;;;;;;4997553;28;20595;-71
2023/11/15 12:01:54;;;;;;;15.50;14.90;;;15.60;99.90;;;;;;4991177;28;20493;-68
2023/11/15 12:04:21;;;;;;;14.50;14.00;;;15.60;99.90;;;;;;4999085;28;20481;-70
2023/11/15 12:06:49;;;;;;;14.70;14.20;;;15.60;99.90;;;;;;4990441;28;20468;-72
2023/11/15 12:09:22;;;;;;;14.80;14.30;;;15.50;99.90;;;;;;4998500;28;20469;-73
2023/11/15 12:11:49;;;;;;;14.90;14.40;;;15.50;99.90;;;;;;4993667;28;20545;-71
2023/11/15 12:14:17;;;;;;;14.80;14.30;;;15.60;99.90;;;;;;4993873;28;20490;-72
2023/11/15 12:16:46;;;;;;;15.13;14.57;;;15.50;99.90;;;;;;4995690;28;20472;-69
2023/11/15 12:19:13;;;;;;;15.47;14.87;;;15.30;99.90;;;;;;5000281;28;21022;-71
2023/11/15 12:21:45;;;;;;;15.30;14.70;;;15.30;99.90;;;;;;4990414;28;20496;-72
2023/11/15 12:24:17;;;;;;;14.80;14.30;;;15.20;99.90;;;;;;4995766;28;20457;-74
2023/11/15 12:26:45;;;;;;;14.80;14.30;;;15.30;99.90;;;;;;4989829;28;20476;-70
2023/11/15 12:29:20;;;;;;;15.33;14.73;;;15.50;99.90;;;;;;4994935;28;20461;-71
2023/11/15 12:31:51;;;;;;;15.30;14.70;;;15.50;99.90;;;;;;4995016;28;20564;-74
2023/11/15 12:34:18;;;;;;;15.30;14.70;;;15.60;99.90;;;;;;4995338;28;20486;-71
2023/11/15 12:36:47;;;;;;;14.70;14.20;;;15.70;99.90;;;;;;4993084;28;21046;-71
2023/11/15 12:39:16;;;;;;;14.60;14.10;;;15.70;99.90;;;;;;4998707;28;20968;-71
2023/11/15 12:41:47;;;;;;;15.03;14.43;;;15.40;99.90;;;;;;4991101;28;20864;-72
2023/11/15 12:44:15;;;;;;;14.83;14.33;;;15.10;99.90;;;;;;4995977;28;21007;-72
2023/11/15 12:46:42;;;;;;;15.53;14.93;;;14.50;99.90;;;;;;5000022;28;20473;-71
2023/11/15 12:49:14;;;;;;;15.07;14.53;;;13.90;99.90;;;;;;4998035;28;20985;-71